createdAt,value
2017-04-29T00:00:20.913Z,29.2
2017-04-29T00:01:20.007Z,29.2
2017-04-29T00:02:19.133Z,29.2
2017-04-29T00:03:20.072Z,29.2
2017-04-29T00:04:20.044Z,29.2
2017-04-29T00:05:18.405Z,29.2
2017-04-29T00:06:18.449Z,29.2
2017-04-29T00:07:21.130Z,29.2
2017-04-29T00:08:21.136Z,29.2
2017-04-29T00:09:18.793Z,29.2
2017-04-29T00:10:18.535Z,29.2
2017-04-29T00:11:20.234Z,29.2
2017-04-29T00:12:20.356Z,29.2
2017-04-29T00:13:20.459Z,29.2
2017-04-29T00:14:20.400Z,29.2
2017-04-29T00:15:18.945Z,29.2
2017-04-29T00:16:18.913Z,29.2
2017-04-29T00:17:18.929Z,29.2
2017-04-29T00:18:20.577Z,29.2
2017-04-29T00:19:19.020Z,29.2
2017-04-29T00:20:19.240Z,29.2
2017-04-29T00:21:19.323Z,29.2
2017-04-29T00:22:19.182Z,29.2
2017-04-29T00:23:19.360Z,29.2
2017-04-29T00:24:20.816Z,29.2
2017-04-29T00:25:20.905Z,29.2
2017-04-29T00:26:19.340Z,29.2
2017-04-29T00:27:21.144Z,29.2
2017-04-29T00:28:19.452Z,29.2
2017-04-29T00:29:19.617Z,29.2
2017-04-29T00:30:19.627Z,29.2
2017-04-29T00:31:21.184Z,29.2
2017-04-29T00:32:21.221Z,29.2
2017-04-29T00:33:19.596Z,29.2
2017-04-29T00:34:21.193Z,29.2
2017-04-29T00:35:19.742Z,29.1
2017-04-29T00:36:19.687Z,29.2
2017-04-29T00:37:21.254Z,29.2
2017-04-29T00:38:21.403Z,29.2
2017-04-29T00:39:21.356Z,29.1
2017-04-29T00:40:19.817Z,29.2
2017-04-29T00:41:19.830Z,29.2
2017-04-29T00:42:21.564Z,29.2
2017-04-29T00:43:21.442Z,29.2
2017-04-29T00:44:20.633Z,29.2
2017-04-29T00:45:20.137Z,29.2
2017-04-29T00:46:20.159Z,29.2
2017-04-29T00:47:20.116Z,29.2
2017-04-29T00:48:21.830Z,29.2
2017-04-29T00:49:20.203Z,29.1
2017-04-29T00:50:21.415Z,29.2
2017-04-29T00:51:21.951Z,29.2
2017-04-29T00:52:20.389Z,29.2
2017-04-29T00:53:22.039Z,29.1
2017-04-29T00:54:20.576Z,29.2
2017-04-29T00:55:22.137Z,29.2
2017-04-29T00:56:20.642Z,29.2
2017-04-29T00:57:20.605Z,29.2
2017-04-29T00:58:20.798Z,29.2
2017-04-29T00:59:22.350Z,29.2
2017-04-29T01:00:20.948Z,29.2
2017-04-29T01:01:22.525Z,29.2
2017-04-29T01:02:22.463Z,29.1
2017-04-29T01:03:22.628Z,29.2
2017-04-29T01:04:21.576Z,29.2
2017-04-29T01:05:22.597Z,29.1
2017-04-29T01:06:22.768Z,29.1
2017-04-29T01:07:21.047Z,29.1
2017-04-29T01:08:22.906Z,29.1
2017-04-29T01:09:22.562Z,29.1
2017-04-29T01:10:21.224Z,29.1
2017-04-29T01:11:21.281Z,29.1
2017-04-29T01:12:23.116Z,29.1
2017-04-29T01:13:21.502Z,29.1
2017-04-29T01:14:21.658Z,29.1
2017-04-29T01:15:23.202Z,29.1
2017-04-29T01:16:21.769Z,29.1
2017-04-29T01:17:23.413Z,29.1
2017-04-29T01:18:23.491Z,29.1
2017-04-29T01:19:23.519Z,29.1
2017-04-29T01:20:22.031Z,29.1
2017-04-29T01:21:22.085Z,29.1
2017-04-29T01:22:23.575Z,29.1
2017-04-29T01:23:22.083Z,29.1
2017-04-29T01:24:23.828Z,29.1
2017-04-29T01:25:22.322Z,29.1
2017-04-29T01:26:22.229Z,29.1
2017-04-29T01:27:22.335Z,29.1
2017-04-29T01:28:23.975Z,29.1
2017-04-29T01:29:22.400Z,29.1
2017-04-29T01:30:22.412Z,29.1
2017-04-29T01:31:24.170Z,29.1
2017-04-29T01:32:24.257Z,29.1
2017-04-29T01:33:22.508Z,29.1
2017-04-29T01:34:24.802Z,29.1
2017-04-29T01:35:24.141Z,29.1
2017-04-29T01:36:24.169Z,29.1
2017-04-29T01:37:22.829Z,29.1
2017-04-29T01:38:22.647Z,29.1
2017-04-29T01:39:22.770Z,29.1
2017-04-29T01:40:22.898Z,29.1
2017-04-29T01:41:24.456Z,29.1
2017-04-29T01:42:24.457Z,29.1
2017-04-29T01:43:22.997Z,29.1
2017-04-29T01:44:24.666Z,29.1
2017-04-29T01:45:24.577Z,29.1
2017-04-29T01:46:24.602Z,29.1
2017-04-29T01:47:24.774Z,29.1
2017-04-29T01:48:23.160Z,29.1
2017-04-29T01:49:24.809Z,29.1
2017-04-29T01:50:23.394Z,29.1
2017-04-29T01:51:24.858Z,29.1
2017-04-29T01:52:24.868Z,29.1
2017-04-29T01:53:24.923Z,29.1
2017-04-29T01:54:24.965Z,29.1
2017-04-29T01:55:23.586Z,29.1
2017-04-29T01:56:23.430Z,29.1
2017-04-29T01:57:25.201Z,29.1
2017-04-29T01:58:23.736Z,29.1
2017-04-29T01:59:23.627Z,29.1
2017-04-29T02:00:25.284Z,29.1
2017-04-29T02:01:25.464Z,29.1
2017-04-29T02:02:25.927Z,29.1
2017-04-29T02:03:23.880Z,29.1
2017-04-29T02:04:25.609Z,29.1
2017-04-29T02:05:25.518Z,29.1
2017-04-29T02:06:25.661Z,29.1
2017-04-29T02:07:23.997Z,29.1
2017-04-29T02:08:25.645Z,29.1
2017-04-29T02:09:25.818Z,29
2017-04-29T02:10:24.083Z,29.1
2017-04-29T02:11:24.884Z,29.1
2017-04-29T02:12:24.321Z,29
2017-04-29T02:13:26.019Z,29.1
2017-04-29T02:14:26.033Z,29.1
2017-04-29T02:15:24.511Z,29.1
2017-04-29T02:16:24.445Z,29.1
2017-04-29T02:17:24.591Z,29
2017-04-29T02:18:24.615Z,29.1
2017-04-29T02:19:26.762Z,29.1
2017-04-29T02:20:26.213Z,29.1
2017-04-29T02:21:24.801Z,29.1
2017-04-29T02:22:26.451Z,29.1
2017-04-29T02:23:26.582Z,29.1
2017-04-29T02:24:25.028Z,29.1
2017-04-29T02:25:26.603Z,29.1
2017-04-29T02:26:26.696Z,29.1
2017-04-29T02:27:25.067Z,29.1
2017-04-29T02:28:25.219Z,29.1
2017-04-29T02:29:25.123Z,29.1
2017-04-29T02:30:27.154Z,29.1
2017-04-29T02:31:25.348Z,29.1
2017-04-29T02:32:25.323Z,29.1
2017-04-29T02:33:25.326Z,29
2017-04-29T02:34:25.328Z,29.1
2017-04-29T02:35:26.006Z,29.1
2017-04-29T02:36:27.347Z,29
2017-04-29T02:37:25.543Z,29.1
2017-04-29T02:38:27.193Z,29.1
2017-04-29T02:39:25.609Z,29.1
2017-04-29T02:40:26.285Z,29.1
2017-04-29T02:41:25.700Z,29.1
2017-04-29T02:42:27.746Z,29.1
2017-04-29T02:43:27.463Z,29
2017-04-29T02:44:27.523Z,29.1
2017-04-29T02:45:27.476Z,29.1
2017-04-29T02:46:27.626Z,29.1
2017-04-29T02:47:25.903Z,29.1
2017-04-29T02:48:27.934Z,29.1
2017-04-29T02:49:27.703Z,29.1
2017-04-29T02:50:26.931Z,29
2017-04-29T02:51:28.298Z,29
2017-04-29T02:52:27.873Z,29
2017-04-29T02:53:27.973Z,29.1
2017-04-29T02:54:26.680Z,29
2017-04-29T02:55:26.335Z,29
2017-04-29T02:56:28.566Z,29
2017-04-29T02:57:26.529Z,29
2017-04-29T02:58:28.007Z,29
2017-04-29T02:59:26.605Z,29
2017-04-29T03:00:28.471Z,29
2017-04-29T03:01:30.265Z,29
2017-04-29T03:02:26.561Z,29
2017-04-29T03:03:26.775Z,29
2017-04-29T03:04:26.781Z,29
2017-04-29T03:05:26.644Z,29
2017-04-29T03:06:26.914Z,29
2017-04-29T03:07:28.308Z,29
2017-04-29T03:08:26.888Z,29
2017-04-29T03:09:26.840Z,29
2017-04-29T03:10:28.470Z,29
2017-04-29T03:11:28.575Z,29
2017-04-29T03:12:27.368Z,29
2017-04-29T03:13:28.771Z,29
2017-04-29T03:14:27.290Z,29
2017-04-29T03:15:27.305Z,29
2017-04-29T03:16:27.243Z,29
2017-04-29T03:17:29.652Z,29
2017-04-29T03:18:29.201Z,29
2017-04-29T03:19:27.469Z,29
2017-04-29T03:20:30.294Z,29
2017-04-29T03:21:27.401Z,29
2017-04-29T03:22:28.226Z,29
2017-04-29T03:23:27.588Z,29
2017-04-29T03:24:27.913Z,29
2017-04-29T03:25:27.841Z,29
2017-04-29T03:26:27.794Z,29
2017-04-29T03:27:27.929Z,29
2017-04-29T03:28:29.383Z,29
2017-04-29T03:29:27.976Z,29
2017-04-29T03:30:30.386Z,29
2017-04-29T03:31:27.969Z,29
2017-04-29T03:32:29.444Z,29
2017-04-29T03:33:29.466Z,29
2017-04-29T03:34:29.700Z,29
2017-04-29T03:35:27.983Z,29
2017-04-29T03:36:28.245Z,29
2017-04-29T03:37:29.648Z,29
2017-04-29T03:38:29.705Z,29
2017-04-29T03:39:29.757Z,29
2017-04-29T03:40:28.212Z,29
2017-04-29T03:41:29.876Z,29
2017-04-29T03:42:28.562Z,29
2017-04-29T03:43:28.385Z,29
2017-04-29T03:44:30.074Z,29
2017-04-29T03:45:28.413Z,29
2017-04-29T03:46:28.570Z,29
2017-04-29T03:47:30.126Z,29
2017-04-29T03:48:30.457Z,29
2017-04-29T03:49:28.743Z,29
2017-04-29T03:50:30.304Z,29
2017-04-29T03:51:28.638Z,29
2017-04-29T03:52:30.428Z,29
2017-04-29T03:53:28.927Z,29
2017-04-29T03:54:30.837Z,29
2017-04-29T03:55:30.519Z,29
2017-04-29T03:56:28.999Z,29
2017-04-29T03:57:29.128Z,29
2017-04-29T03:58:29.193Z,29
2017-04-29T03:59:29.207Z,29
2017-04-29T04:00:30.982Z,29
2017-04-29T04:01:29.121Z,29
2017-04-29T04:02:30.925Z,29
2017-04-29T04:03:30.934Z,29
2017-04-29T04:04:31.138Z,29
2017-04-29T04:05:29.522Z,29
2017-04-29T04:06:31.448Z,29
2017-04-29T04:07:29.705Z,29
2017-04-29T04:08:31.302Z,28.9
2017-04-29T04:09:31.386Z,29
2017-04-29T04:10:29.665Z,29
2017-04-29T04:11:31.296Z,29
2017-04-29T04:12:30.001Z,29
2017-04-29T04:13:29.880Z,29
2017-04-29T04:14:31.437Z,29
2017-04-29T04:15:31.455Z,29
2017-04-29T04:16:30.022Z,29
2017-04-29T04:17:29.987Z,29
2017-04-29T04:18:30.451Z,29
2017-04-29T04:19:31.824Z,29
2017-04-29T04:20:31.764Z,29
2017-04-29T04:21:31.793Z,29
2017-04-29T04:22:30.421Z,29
2017-04-29T04:23:30.408Z,29
2017-04-29T04:24:32.336Z,29
2017-04-29T04:25:32.720Z,29
2017-04-29T04:26:32.146Z,29
2017-04-29T04:27:30.526Z,29
2017-04-29T04:28:32.235Z,29
2017-04-29T04:29:30.830Z,29
2017-04-29T04:30:31.100Z,29
2017-04-29T04:31:30.791Z,29
2017-04-29T04:32:30.970Z,29
2017-04-29T04:33:30.944Z,29
2017-04-29T04:34:32.600Z,29
2017-04-29T04:35:33.256Z,29
2017-04-29T04:36:31.380Z,29
2017-04-29T04:37:31.080Z,29
2017-04-29T04:38:31.206Z,29
2017-04-29T04:39:32.840Z,29
2017-04-29T04:40:32.833Z,29
2017-04-29T04:41:32.874Z,29
2017-04-29T04:42:31.577Z,29
2017-04-29T04:43:31.527Z,29
2017-04-29T04:44:31.616Z,29
2017-04-29T04:45:33.321Z,29
2017-04-29T04:46:33.273Z,29
2017-04-29T04:47:33.007Z,29
2017-04-29T04:48:32.051Z,29
2017-04-29T04:49:31.783Z,29
2017-04-29T04:50:31.619Z,29
2017-04-29T04:51:31.643Z,29
2017-04-29T04:52:33.401Z,29
2017-04-29T04:53:31.938Z,29
2017-04-29T04:54:33.781Z,29
2017-04-29T04:55:32.069Z,29
2017-04-29T04:56:33.531Z,29
2017-04-29T04:57:32.186Z,29
2017-04-29T04:58:32.202Z,29
2017-04-29T04:59:32.323Z,29
2017-04-29T05:00:32.623Z,29
2017-04-29T05:01:32.395Z,29.1
2017-04-29T05:02:33.943Z,29
2017-04-29T05:03:32.549Z,29.1
2017-04-29T05:04:34.029Z,29.1
2017-04-29T05:05:34.114Z,29.1
2017-04-29T05:06:32.814Z,29.1
2017-04-29T05:07:34.220Z,29.1
2017-04-29T05:08:32.653Z,29.1
2017-04-29T05:09:32.687Z,29.1
2017-04-29T05:10:34.334Z,29
2017-04-29T05:11:34.531Z,29.1
2017-04-29T05:12:33.219Z,29.1
2017-04-29T05:13:34.492Z,29.1
2017-04-29T05:14:34.627Z,29.1
2017-04-29T05:15:34.677Z,29.1
2017-04-29T05:16:33.056Z,29.1
2017-04-29T05:17:34.792Z,29.1
2017-04-29T05:18:33.352Z,29.1
2017-04-29T05:19:34.799Z,29.1
2017-04-29T05:20:33.303Z,29.1
2017-04-29T05:21:33.285Z,29.1
2017-04-29T05:22:34.929Z,29.1
2017-04-29T05:23:34.921Z,29.1
2017-04-29T05:24:33.831Z,29.2
2017-04-29T05:25:35.091Z,29.1
2017-04-29T05:26:33.458Z,29.2
2017-04-29T05:27:35.062Z,29.2
2017-04-29T05:28:35.258Z,29.1
2017-04-29T05:29:33.722Z,29.2
2017-04-29T05:30:33.855Z,29.2
2017-04-29T05:31:35.288Z,29.2
2017-04-29T05:32:35.406Z,29.1
2017-04-29T05:33:35.485Z,29.2
2017-04-29T05:34:35.548Z,29.2
2017-04-29T05:35:34.091Z,29.2
2017-04-29T05:36:34.244Z,29.2
2017-04-29T05:37:35.585Z,29.1
2017-04-29T05:38:35.721Z,29.2
2017-04-29T05:39:34.127Z,29.2
2017-04-29T05:40:34.350Z,29.2
2017-04-29T05:41:34.246Z,29.2
2017-04-29T05:42:36.132Z,29.2
2017-04-29T05:43:34.388Z,29.2
2017-04-29T05:44:34.540Z,29.2
2017-04-29T05:45:36.032Z,29.2
2017-04-29T05:46:34.440Z,29.2
2017-04-29T05:47:34.602Z,29.2
2017-04-29T05:48:34.998Z,29.3
2017-04-29T05:49:36.394Z,29.2
2017-04-29T05:50:34.724Z,29.3
2017-04-29T05:51:34.770Z,29.2
2017-04-29T05:52:36.372Z,29.3
2017-04-29T05:53:34.888Z,29.2
2017-04-29T05:54:36.772Z,29.3
2017-04-29T05:55:36.542Z,29.3
2017-04-29T05:56:34.963Z,29.3
2017-04-29T05:57:35.141Z,29.3
2017-04-29T05:58:36.654Z,29.3
2017-04-29T05:59:35.234Z,29.3
2017-04-29T06:00:37.134Z,29.4
2017-04-29T06:01:36.743Z,29.4
2017-04-29T06:02:37.285Z,29.4
2017-04-29T06:03:36.821Z,29.3
2017-04-29T06:04:35.413Z,29.4
2017-04-29T06:05:37.007Z,29.4
2017-04-29T06:06:35.653Z,29.4
2017-04-29T06:07:37.167Z,29.4
2017-04-29T06:08:35.688Z,29.5
2017-04-29T06:09:35.993Z,29.5
2017-04-29T06:10:37.166Z,29.5
2017-04-29T06:11:37.205Z,29.5
2017-04-29T06:12:37.541Z,29.5
2017-04-29T06:13:37.289Z,29.5
2017-04-29T06:14:35.875Z,29.5
2017-04-29T06:15:37.360Z,29.6
2017-04-29T06:16:35.967Z,29.6
2017-04-29T06:17:35.816Z,29.6
2017-04-29T06:18:37.847Z,29.7
2017-04-29T06:19:35.903Z,29.7
2017-04-29T06:20:37.497Z,29.7
2017-04-29T06:21:36.005Z,29.7
2017-04-29T06:22:37.637Z,29.7
2017-04-29T06:23:36.208Z,29.7
2017-04-29T06:24:38.125Z,29.7
2017-04-29T06:25:36.111Z,29.7
2017-04-29T06:26:37.912Z,29.8
2017-04-29T06:27:38.431Z,29.8
2017-04-29T06:28:36.446Z,29.7
2017-04-29T06:29:36.444Z,29.8
2017-04-29T06:30:38.345Z,29.8
2017-04-29T06:31:36.554Z,29.8
2017-04-29T06:32:36.646Z,29.8
2017-04-29T06:33:36.625Z,29.9
2017-04-29T06:34:36.553Z,29.9
2017-04-29T06:35:38.302Z,29.9
2017-04-29T06:36:36.982Z,29.9
2017-04-29T06:37:36.668Z,29.9
2017-04-29T06:38:38.300Z,29.9
2017-04-29T06:39:38.361Z,29.9
2017-04-29T06:40:36.922Z,30
2017-04-29T06:41:38.374Z,30
2017-04-29T06:42:37.252Z,30
2017-04-29T06:43:36.916Z,30
2017-04-29T06:44:38.667Z,30
2017-04-29T06:45:37.066Z,30
2017-04-29T06:46:38.741Z,30
2017-04-29T06:47:37.100Z,30
2017-04-29T06:48:37.555Z,30
2017-04-29T06:49:37.367Z,30.1
2017-04-29T06:50:38.964Z,30.1
2017-04-29T06:51:37.421Z,30.1
2017-04-29T06:52:37.292Z,30.1
2017-04-29T06:53:39.088Z,30.1
2017-04-29T06:54:39.440Z,30.1
2017-04-29T06:55:39.195Z,30.1
2017-04-29T06:56:39.193Z,30.1
2017-04-29T06:57:37.635Z,30.1
2017-04-29T06:58:37.663Z,30.2
2017-04-29T06:59:37.882Z,30.2
2017-04-29T07:00:39.621Z,30.1
2017-04-29T07:01:39.396Z,30.2
2017-04-29T07:02:39.545Z,30.2
2017-04-29T07:03:39.595Z,30.2
2017-04-29T07:04:38.034Z,30.2
2017-04-29T07:05:38.054Z,30.2
2017-04-29T07:06:41.197Z,30.2
2017-04-29T07:07:37.970Z,30.2
2017-04-29T07:08:39.650Z,30.2
2017-04-29T07:09:38.053Z,30.3
2017-04-29T07:10:39.803Z,30.2
2017-04-29T07:11:41.020Z,30.3
2017-04-29T07:12:40.889Z,30.3
2017-04-29T07:13:39.985Z,30.3
2017-04-29T07:14:38.442Z,30.3
2017-04-29T07:15:38.493Z,30.4
2017-04-29T07:16:40.097Z,30.4
2017-04-29T07:17:40.295Z,30.4
2017-04-29T07:18:39.047Z,30.4
2017-04-29T07:19:40.197Z,30.4
2017-04-29T07:20:40.405Z,30.4
2017-04-29T07:21:38.675Z,30.5
2017-04-29T07:22:40.389Z,30.5
2017-04-29T07:23:40.473Z,30.5
2017-04-29T07:24:39.365Z,30.5
2017-04-29T07:25:40.489Z,30.5
2017-04-29T07:26:40.651Z,30.5
2017-04-29T07:27:39.184Z,30.6
2017-04-29T07:28:40.669Z,30.6
2017-04-29T07:29:39.225Z,30.7
2017-04-29T07:30:41.190Z,30.7
2017-04-29T07:31:39.280Z,30.7
2017-04-29T07:32:39.344Z,30.8
2017-04-29T07:33:39.418Z,30.8
2017-04-29T07:34:41.018Z,30.8
2017-04-29T07:35:41.077Z,30.9
2017-04-29T07:36:41.590Z,30.9
2017-04-29T07:37:39.639Z,31
2017-04-29T07:38:41.340Z,31
2017-04-29T07:39:40.266Z,31.1
2017-04-29T07:40:41.428Z,31.1
2017-04-29T07:41:40.506Z,31.1
2017-04-29T07:42:39.988Z,31.1
2017-04-29T07:43:39.917Z,31.1
2017-04-29T07:44:39.829Z,31.1
2017-04-29T07:45:41.512Z,31.1
2017-04-29T07:46:40.133Z,31
2017-04-29T07:47:41.703Z,31
2017-04-29T07:48:40.375Z,31
2017-04-29T07:49:41.893Z,30.9
2017-04-29T07:50:40.155Z,30.9
2017-04-29T07:51:41.891Z,30.9
2017-04-29T07:52:41.951Z,30.9
2017-04-29T07:53:40.466Z,30.9
2017-04-29T07:54:44.776Z,30.9
2017-04-29T07:55:40.442Z,30.9
2017-04-29T07:56:40.476Z,30.9
2017-04-29T07:57:40.510Z,30.9
2017-04-29T07:58:41.895Z,30.9
2017-04-29T07:59:41.320Z,30.9
2017-04-29T08:00:41.157Z,30.9
2017-04-29T08:01:42.338Z,30.9
2017-04-29T08:02:42.322Z,30.9
2017-04-29T08:03:40.933Z,30.9
2017-04-29T08:04:41.018Z,31
2017-04-29T08:05:40.894Z,31
2017-04-29T08:06:41.388Z,31.1
2017-04-29T08:07:42.612Z,31.2
2017-04-29T08:08:42.664Z,31.2
2017-04-29T08:09:41.163Z,31.3
2017-04-29T08:10:42.754Z,31.3
2017-04-29T08:11:42.837Z,31.4
2017-04-29T08:12:41.675Z,31.4
2017-04-29T08:13:42.013Z,31.5
2017-04-29T08:14:43.075Z,31.5
2017-04-29T08:15:43.134Z,31.5
2017-04-29T08:16:43.097Z,31.5
2017-04-29T08:17:43.287Z,31.4
2017-04-29T08:18:42.023Z,31.4
2017-04-29T08:19:41.817Z,31.4
2017-04-29T08:20:43.417Z,31.3
2017-04-29T08:21:42.321Z,31.3
2017-04-29T08:22:43.565Z,31.3
2017-04-29T08:23:43.669Z,31.3
2017-04-29T08:24:42.434Z,31.2
2017-04-29T08:25:43.716Z,31.3
2017-04-29T08:26:43.751Z,31.4
2017-04-29T08:27:43.787Z,31.5
2017-04-29T08:28:43.837Z,31.5
2017-04-29T08:29:43.841Z,31.6
2017-04-29T08:30:44.113Z,31.6
2017-04-29T08:31:43.803Z,31.6
2017-04-29T08:32:43.933Z,31.6
2017-04-29T08:33:43.031Z,31.5
2017-04-29T08:34:42.495Z,31.5
2017-04-29T08:35:42.517Z,31.4
2017-04-29T08:36:44.315Z,31.4
2017-04-29T08:37:44.254Z,31.3
2017-04-29T08:38:44.188Z,31.3
2017-04-29T08:39:42.755Z,31.2
2017-04-29T08:40:44.255Z,31.2
2017-04-29T08:41:44.449Z,31.2
2017-04-29T08:42:43.213Z,31.1
2017-04-29T08:43:44.310Z,31.1
2017-04-29T08:44:45.889Z,31.1
2017-04-29T08:45:44.634Z,31.1
2017-04-29T08:46:44.721Z,31
2017-04-29T08:47:43.788Z,31
2017-04-29T08:48:44.188Z,31
2017-04-29T08:49:46.184Z,30.9
2017-04-29T08:50:44.758Z,30.9
2017-04-29T08:51:43.455Z,30.9
2017-04-29T08:52:43.424Z,30.9
2017-04-29T08:53:45.078Z,30.9
2017-04-29T08:54:45.991Z,30.8
2017-04-29T08:55:43.465Z,30.8
2017-04-29T08:56:43.644Z,30.8
2017-04-29T08:57:45.248Z,30.8
2017-04-29T08:58:43.706Z,30.8
2017-04-29T08:59:45.965Z,30.7
2017-04-29T09:00:47.142Z,30.7
2017-04-29T09:01:45.593Z,30.7
2017-04-29T09:02:46.219Z,30.7
2017-04-29T09:03:45.590Z,30.7
2017-04-29T09:04:44.178Z,30.7
2017-04-29T09:05:44.120Z,30.7
2017-04-29T09:06:46.186Z,30.7
2017-04-29T09:07:44.248Z,30.7
2017-04-29T09:08:44.357Z,30.7
2017-04-29T09:09:44.490Z,30.7
2017-04-29T09:10:45.973Z,30.7
2017-04-29T09:11:44.605Z,30.7
2017-04-29T09:12:47.105Z,30.7
2017-04-29T09:13:46.853Z,30.7
2017-04-29T09:14:45.106Z,30.7
2017-04-29T09:15:44.727Z,30.7
2017-04-29T09:16:46.431Z,30.7
2017-04-29T09:17:46.519Z,30.7
2017-04-29T09:18:47.367Z,30.7
2017-04-29T09:19:45.068Z,30.6
2017-04-29T09:20:44.935Z,30.7
2017-04-29T09:21:45.033Z,30.7
2017-04-29T09:22:45.118Z,30.7
2017-04-29T09:23:48.173Z,30.7
2017-04-29T09:24:47.154Z,30.6
2017-04-29T09:25:45.162Z,30.6
2017-04-29T09:26:45.321Z,30.6
2017-04-29T09:27:45.316Z,30.6
2017-04-29T09:28:45.315Z,30.6
2017-04-29T09:29:47.119Z,30.6
2017-04-29T09:30:45.817Z,30.5
2017-04-29T09:31:47.126Z,30.5
2017-04-29T09:32:47.117Z,30.5
2017-04-29T09:33:47.426Z,30.5
2017-04-29T09:34:45.830Z,30.5
2017-04-29T09:35:47.305Z,30.6
2017-04-29T09:36:47.562Z,30.6
2017-04-29T09:37:47.485Z,30.6
2017-04-29T09:38:46.108Z,30.6
2017-04-29T09:39:45.931Z,30.6
2017-04-29T09:40:47.714Z,30.7
2017-04-29T09:41:47.701Z,30.7
2017-04-29T09:42:46.542Z,30.7
2017-04-29T09:43:47.710Z,30.8
2017-04-29T09:44:47.737Z,30.8
2017-04-29T09:45:46.311Z,30.9
2017-04-29T09:46:47.935Z,30.9
2017-04-29T09:47:48.783Z,31
2017-04-29T09:48:48.309Z,31.1
2017-04-29T09:49:48.141Z,31.2
2017-04-29T09:50:50.095Z,31.3
2017-04-29T09:51:47.772Z,31.4
2017-04-29T09:52:48.647Z,31.5
2017-04-29T09:53:46.542Z,31.6
2017-04-29T09:54:48.470Z,31.7
2017-04-29T09:55:48.361Z,31.8
2017-04-29T09:56:48.318Z,31.8
2017-04-29T09:57:46.768Z,31.8
2017-04-29T09:58:46.920Z,31.8
2017-04-29T09:59:46.857Z,31.9
2017-04-29T10:00:48.766Z,31.9
2017-04-29T10:01:48.552Z,31.9
2017-04-29T10:02:48.651Z,31.9
2017-04-29T10:03:47.330Z,31.9
2017-04-29T10:04:48.736Z,31.9
2017-04-29T10:05:47.217Z,32
2017-04-29T10:06:49.158Z,32
2017-04-29T10:07:48.673Z,32
2017-04-29T10:08:47.332Z,32.1
2017-04-29T10:09:49.733Z,32.1
2017-04-29T10:10:49.000Z,32.2
2017-04-29T10:11:49.059Z,32.3
2017-04-29T10:12:49.377Z,32.4
2017-04-29T10:13:47.563Z,32.5
2017-04-29T10:14:47.796Z,32.6
2017-04-29T10:15:49.983Z,32.6
2017-04-29T10:16:47.786Z,32.7
2017-04-29T10:17:50.229Z,32.7
2017-04-29T10:18:49.736Z,32.7
2017-04-29T10:19:49.589Z,32.7
2017-04-29T10:20:48.113Z,32.7
2017-04-29T10:21:48.706Z,32.7
2017-04-29T10:22:48.185Z,32.6
2017-04-29T10:23:49.881Z,32.6
2017-04-29T10:24:48.549Z,32.5
2017-04-29T10:25:48.212Z,32.5
2017-04-29T10:26:51.243Z,32.5
2017-04-29T10:27:50.081Z,32.4
2017-04-29T10:28:50.502Z,32.4
2017-04-29T10:29:50.040Z,32.4
2017-04-29T10:30:49.951Z,32.3
2017-04-29T10:31:50.236Z,32.3
2017-04-29T10:32:50.211Z,32.3
2017-04-29T10:33:50.896Z,32.3
2017-04-29T10:34:48.675Z,32.4
2017-04-29T10:35:50.897Z,32.4
2017-04-29T10:36:50.730Z,32.4
2017-04-29T10:37:50.525Z,32.5
2017-04-29T10:38:50.633Z,32.6
2017-04-29T10:39:50.637Z,32.7
2017-04-29T10:40:50.735Z,32.8
2017-04-29T10:41:49.063Z,32.9
2017-04-29T10:42:49.375Z,33
2017-04-29T10:43:49.159Z,33
2017-04-29T10:44:49.007Z,33
2017-04-29T10:45:49.223Z,33
2017-04-29T10:46:50.694Z,33.1
2017-04-29T10:47:50.791Z,33.3
2017-04-29T10:48:49.686Z,33.6
2017-04-29T10:49:49.392Z,33.9
2017-04-29T10:50:49.382Z,33.8
2017-04-29T10:51:49.492Z,33.6
2017-04-29T10:52:51.114Z,33.4
2017-04-29T10:53:51.294Z,33.2
2017-04-29T10:54:49.846Z,32.9
2017-04-29T10:55:51.243Z,32.7
2017-04-29T10:56:49.821Z,32.6
2017-04-29T10:57:49.910Z,32.4
2017-04-29T10:58:49.749Z,32.3
2017-04-29T10:59:51.497Z,32.2
2017-04-29T11:00:50.051Z,32
2017-04-29T11:01:51.511Z,31.9
2017-04-29T11:02:51.578Z,31.8
2017-04-29T11:03:49.886Z,31.7
2017-04-29T11:04:51.549Z,31.6
2017-04-29T11:05:51.718Z,31.5
2017-04-29T11:06:52.034Z,31.5
2017-04-29T11:07:50.117Z,31.4
2017-04-29T11:08:51.973Z,31.4
2017-04-29T11:09:52.862Z,31.4
2017-04-29T11:10:51.872Z,31.3
2017-04-29T11:11:51.952Z,31.3
2017-04-29T11:12:52.443Z,31.2
2017-04-29T11:13:50.655Z,31.2
2017-04-29T11:14:51.140Z,31.2
2017-04-29T11:15:50.690Z,31.1
2017-04-29T11:16:52.179Z,31.1
2017-04-29T11:17:53.617Z,31.1
2017-04-29T11:18:52.722Z,31.1
2017-04-29T11:19:50.897Z,31
2017-04-29T11:20:50.997Z,31
2017-04-29T11:21:51.045Z,31
2017-04-29T11:22:51.029Z,30.9
2017-04-29T11:23:53.265Z,31
2017-04-29T11:24:51.423Z,30.9
2017-04-29T11:25:51.033Z,30.9
2017-04-29T11:26:51.958Z,30.9
2017-04-29T11:27:53.692Z,30.9
2017-04-29T11:28:52.817Z,30.9
2017-04-29T11:29:52.902Z,30.9
2017-04-29T11:30:53.179Z,30.8
2017-04-29T11:31:53.094Z,30.8
2017-04-29T11:32:52.133Z,30.8
2017-04-29T11:33:51.467Z,30.7
2017-04-29T11:34:53.127Z,30.7
2017-04-29T11:35:51.575Z,30.7
2017-04-29T11:36:53.507Z,30.7
2017-04-29T11:37:53.275Z,30.7
2017-04-29T11:38:51.913Z,30.7
2017-04-29T11:39:53.448Z,30.7
2017-04-29T11:40:53.517Z,30.6
2017-04-29T11:41:51.924Z,30.7
2017-04-29T11:42:53.878Z,30.6
2017-04-29T11:43:53.768Z,30.6
2017-04-29T11:44:52.235Z,30.6
2017-04-29T11:45:53.713Z,30.6
2017-04-29T11:46:53.752Z,30.6
2017-04-29T11:47:53.879Z,30.6
2017-04-29T11:48:53.308Z,30.6
2017-04-29T11:49:54.453Z,30.5
2017-04-29T11:50:54.039Z,30.5
2017-04-29T11:51:54.204Z,30.5
2017-04-29T11:52:52.423Z,30.3
2017-04-29T11:53:52.634Z,30.5
2017-04-29T11:54:52.947Z,30.5
2017-04-29T11:55:52.540Z,30.5
2017-04-29T11:56:52.706Z,30.5
2017-04-29T11:57:54.392Z,30.6
2017-04-29T11:58:54.417Z,30.7
2017-04-29T11:59:54.412Z,30.8
2017-04-29T12:00:53.227Z,30.9
2017-04-29T12:01:54.555Z,30.9
2017-04-29T12:02:52.975Z,31
2017-04-29T12:03:54.545Z,31.1
2017-04-29T12:04:55.301Z,31.2
2017-04-29T12:05:54.757Z,31.3
2017-04-29T12:06:53.386Z,32
2017-04-29T12:07:54.794Z,33.3
2017-04-29T12:08:54.866Z,34.9
2017-04-29T12:09:53.410Z,35.5
2017-04-29T12:10:53.482Z,35.4
2017-04-29T12:11:55.019Z,35.1
2017-04-29T12:12:53.677Z,34.8
2017-04-29T12:13:55.189Z,34.5
2017-04-29T12:14:55.086Z,34.2
2017-04-29T12:15:55.177Z,33.9
2017-04-29T12:16:53.648Z,33.7
2017-04-29T12:17:55.286Z,33.4
2017-04-29T12:18:54.054Z,33.2
2017-04-29T12:19:55.412Z,33
2017-04-29T12:20:53.785Z,32.8
2017-04-29T12:21:53.835Z,32.6
2017-04-29T12:22:55.525Z,32.5
2017-04-29T12:23:55.529Z,32.4
2017-04-29T12:24:54.405Z,32.3
2017-04-29T12:25:55.745Z,32.1
2017-04-29T12:26:54.155Z,32
2017-04-29T12:27:55.672Z,32
2017-04-29T12:28:55.938Z,31.9
2017-04-29T12:29:55.395Z,31.8
2017-04-29T12:30:56.126Z,31.8
2017-04-29T12:31:54.622Z,31.7
2017-04-29T12:32:54.523Z,31.7
2017-04-29T12:33:54.674Z,31.6
2017-04-29T12:34:56.180Z,31.6
2017-04-29T12:35:54.649Z,31.6
2017-04-29T12:36:54.873Z,31.6
2017-04-29T12:37:57.034Z,31.6
2017-04-29T12:38:54.984Z,31.6
2017-04-29T12:39:56.619Z,31.6
2017-04-29T12:40:56.585Z,31.6
2017-04-29T12:41:56.692Z,31.7
2017-04-29T12:42:56.676Z,32.1
2017-04-29T12:43:56.789Z,33.2
2017-04-29T12:44:55.127Z,34.6
2017-04-29T12:45:55.237Z,35.9
2017-04-29T12:46:56.842Z,37.2
2017-04-29T12:47:55.163Z,38.1
2017-04-29T12:48:55.360Z,38.6
2017-04-29T12:49:56.962Z,39
2017-04-29T12:50:55.255Z,39.6
2017-04-29T12:51:55.335Z,40.3
2017-04-29T12:52:57.015Z,40.8
2017-04-29T12:53:55.511Z,41.2
2017-04-29T12:54:57.165Z,41.5
2017-04-29T12:55:57.334Z,41.7
2017-04-29T12:56:55.863Z,41.7
2017-04-29T12:57:56.732Z,41.7
2017-04-29T12:58:55.995Z,41.5
2017-04-29T12:59:56.067Z,41.3
2017-04-29T13:00:56.782Z,41
2017-04-29T13:01:57.775Z,40.7
2017-04-29T13:02:57.761Z,40.3
2017-04-29T13:03:56.153Z,39.9
2017-04-29T13:04:57.842Z,39.5
2017-04-29T13:05:57.820Z,39.1
2017-04-29T13:06:56.402Z,38.6
2017-04-29T13:07:57.918Z,38
2017-04-29T13:08:58.110Z,37.4
2017-04-29T13:09:56.546Z,36.7
2017-04-29T13:10:58.025Z,36.2
2017-04-29T13:11:58.850Z,35.7
2017-04-29T13:12:56.641Z,35.2
2017-04-29T13:13:56.737Z,34.9
2017-04-29T13:14:58.425Z,34.5
2017-04-29T13:15:56.797Z,34.2
2017-04-29T13:16:58.444Z,33.9
2017-04-29T13:17:57.071Z,33.7
2017-04-29T13:18:58.574Z,33.5
2017-04-29T13:19:58.724Z,33.3
2017-04-29T13:20:57.265Z,33.1
2017-04-29T13:21:58.839Z,33
2017-04-29T13:22:57.330Z,32.8
2017-04-29T13:23:57.288Z,32.7
2017-04-29T13:24:59.046Z,32.6
2017-04-29T13:25:59.050Z,32.5
2017-04-29T13:26:57.597Z,32.4
2017-04-29T13:27:59.187Z,32.3
2017-04-29T13:28:59.253Z,32.2
2017-04-29T13:29:57.719Z,32.2
2017-04-29T13:30:59.396Z,32.1